Time;durP1;ratioP1;P1;durP2;ratioP2;P2;SDS_P1;SDS_P2;PMS_P1;PMS_P2;Temp;Humidity;BMP_temperature;BMP_pressure;BME280_temperature;BME280_humidity;BME280_pressure;Samples;Min_cycle;Max_cycle;Signal;HPM_P1;HPM_P2
2023/09/15 00:01:26;;;;;;;11.68;10.48;;;;;;;21.83;55.83;93855.63;4839029;29;20037;-95
2023/09/15 00:03:51;;;;;;;11.95;10.75;;;;;;;21.84;56.03;93856.34;4849641;29;20056;-95
2023/09/15 00:06:17;;;;;;;13.15;10.70;;;;;;;21.83;55.77;93855.63;4849344;29;20044;-94
2023/09/15 00:08:42;;;;;;;11.88;10.40;;;;;;;21.83;56.08;93854.88;4849713;29;20545;-94
2023/09/15 00:11:14;;;;;;;11.70;10.50;;;;;;;21.81;56.04;93858.16;4849643;29;20052;-95
2023/09/15 00:13:40;;;;;;;14.38;10.82;;;;;;;21.81;56.10;93852.63;4832972;29;20404;-94
2023/09/15 00:16:06;;;;;;;12.40;10.48;;;;;;;21.86;55.89;93853.84;4844587;29;20226;-95
2023/09/15 00:18:33;;;;;;;11.50;10.07;;;;;;;21.83;56.09;93846.63;4832632;29;20033;-94
2023/09/15 00:20:58;;;;;;;11.98;10.65;;;;;;;21.84;55.95;93856.34;4831735;29;20059;-94
2023/09/15 00:23:24;;;;;;;12.68;10.88;;;;;;;21.82;56.03;93850.63;4789981;29;20050;-94
2023/09/15 00:25:52;;;;;;;11.48;10.27;;;;;;;21.82;55.92;93859.63;4792717;29;20059;-94
2023/09/15 00:28:17;;;;;;;13.32;11.35;;;;;;;21.80;55.78;93859.41;4809134;29;20042;-94
2023/09/15 00:30:44;;;;;;;11.23;10.13;;;;;;;21.83;55.83;93863.13;4790930;29;20183;-94
2023/09/15 00:33:10;;;;;;;11.65;10.43;;;;;;;21.82;55.85;93858.88;4774812;29;20162;-94
2023/09/15 00:35:36;;;;;;;12.75;10.98;;;;;;;21.83;55.86;93857.63;4790231;29;20050;-95
2023/09/15 00:38:02;;;;;;;11.60;9.15;;;;;;;21.82;55.72;93856.88;4808634;29;20056;-93
2023/09/15 00:40:28;;;;;;;10.43;9.10;;;;;;;21.82;55.90;93848.63;4792329;29;20057;-95
2023/09/15 00:42:53;;;;;;;11.50;10.05;;;;;;;21.83;55.85;93846.63;4786334;29;20107;-94
2023/09/15 00:45:19;;;;;;;11.98;9.43;;;;;;;21.83;55.72;93850.09;4775409;29;20546;-94
2023/09/15 00:47:49;;;;;;;11.10;9.93;;;;;;;21.82;55.78;93843.13;4790903;29;20781;-93
2023/09/15 00:50:17;;;;;;;11.53;9.80;;;;;;;21.82;55.87;93848.63;4792788;29;20049;-94
2023/09/15 00:52:44;;;;;;;10.98;9.15;;;;;;;21.81;56.02;93844.38;4776424;29;20292;-94
2023/09/15 00:55:11;;;;;;;11.35;9.73;;;;;;;21.83;55.70;93846.63;4832242;29;20048;-94
2023/09/15 00:57:39;;;;;;;11.50;9.55;;;;;;;21.83;55.69;93833.59;4849081;29;20049;-94
2023/09/15 01:00:12;;;;;;;10.35;9.25;;;;;;;21.81;55.60;93843.63;4848972;29;20112;-94
2023/09/15 01:02:39;;;;;;;11.10;9.18;;;;;;;21.82;55.62;93839.63;4850584;29;20036;-95
2023/09/15 01:05:05;;;;;;;10.85;9.75;;;;;;;21.82;55.60;93845.13;4847042;29;20072;-94
2023/09/15 01:07:30;;;;;;;11.23;9.88;;;;;;;21.81;55.71;93841.63;4848612;29;20100;-96
2023/09/15 01:09:56;;;;;;;10.40;9.40;;;;;;;21.82;55.64;93845.88;4848740;29;20041;-95
2023/09/15 01:12:21;;;;;;;10.65;9.55;;;;;;;21.84;55.80;93848.09;4845273;29;20808;-94
2023/09/15 01:14:47;;;;;;;9.82;8.88;;;;;;;21.83;55.64;93843.88;4839203;29;20052;-94
2023/09/15 01:17:18;;;;;;;12.55;9.40;;;;;;;21.80;55.82;93840.16;4837833;29;20053;-94
2023/09/15 01:20:01;;;;;;;9.55;8.55;;;;;;;21.82;55.61;93828.63;4838705;29;20052;-94
2023/09/15 01:22:53;;;;;;;10.48;8.90;;;;;;;21.81;55.58;93832.63;4836388;29;20041;-93
2023/09/15 01:25:56;;;;;;;11.30;8.70;;;;;;;21.82;55.78;93825.88;4831868;29;20124;-94
2023/09/15 01:28:29;;;;;;;10.40;9.30;;;;;;;21.80;55.67;93831.88;4860103;29;20056;-94
2023/09/15 01:30:55;;;;;;;9.65;8.55;;;;;;;21.79;55.77;93829.66;4845818;29;20560;-94
2023/09/15 01:33:24;;;;;;;9.48;8.52;;;;;;;21.79;55.55;93837.91;4829402;29;20060;-94
2023/09/15 01:35:50;;;;;;;9.80;8.50;;;;;;;21.80;55.79;93831.16;4845860;29;20104;-94
2023/09/15 01:38:16;;;;;;;9.20;7.93;;;;;;;21.80;55.74;93836.66;4847717;29;20052;-95
2023/09/15 01:40:41;;;;;;;10.35;8.38;;;;;;;21.80;55.63;93839.41;4847604;29;20564;-94
2023/09/15 01:43:07;;;;;;;10.57;9.48;;;;;;;21.81;55.40;93829.88;4848075;29;20052;-95
2023/09/15 01:45:33;;;;;;;9.27;8.38;;;;;;;21.82;55.60;93828.63;4860902;29;20060;-94
2023/09/15 01:47:58;;;;;;;8.73;7.82;;;;;;;21.81;55.59;93832.63;4848315;29;20029;-94
2023/09/15 01:50:25;;;;;;;9.48;8.55;;;;;;;21.79;55.36;93840.66;4824982;29;20237;-94
2023/09/15 01:52:50;;;;;;;12.70;8.98;;;;;;;21.80;55.43;93842.16;4792377;29;20458;-94
2023/09/15 01:55:16;;;;;;;9.40;7.25;;;;;;;21.81;55.08;93844.38;4793676;29;20042;-94
2023/09/15 01:57:41;;;;;;;9.38;8.10;;;;;;;21.78;55.60;93839.91;4791983;29;20231;-94
2023/09/15 02:00:08;;;;;;;8.23;7.43;;;;;;;21.82;55.24;93831.38;4758899;29;20055;-94
2023/09/15 02:02:33;;;;;;;9.93;7.93;;;;;;;21.81;55.43;93832.63;4765511;29;20042;-93
2023/09/15 02:04:58;;;;;;;9.98;8.73;;;;;;;21.77;55.59;93818.44;4767191;29;20054;-95
2023/09/15 02:07:24;;;;;;;9.43;7.93;;;;;;;21.80;55.50;93828.38;4770026;29;20047;-93
2023/09/15 02:09:49;;;;;;;10.48;8.27;;;;;;;21.78;55.31;93822.66;4752216;30;20059;-94
2023/09/15 02:12:15;;;;;;;8.32;7.38;;;;;;;21.79;55.25;93822.16;4743252;29;20047;-94
2023/09/15 02:14:41;;;;;;;9.18;7.57;;;;;;;21.80;55.67;93817.38;4752448;29;20051;-94
2023/09/15 02:17:06;;;;;;;9.65;7.90;;;;;;;21.79;55.42;93815.91;4737042;29;20070;-94
2023/09/15 02:19:33;;;;;;;9.23;7.65;;;;;;;21.79;55.56;93821.41;4738692;29;20076;-94
2023/09/15 02:21:58;;;;;;;7.18;6.53;;;;;;;21.79;55.28;93822.16;4764138;29;20042;-95
2023/09/15 02:24:24;;;;;;;8.25;7.45;;;;;;;21.78;55.33;93817.16;4773286;29;20388;-94
2023/09/15 02:26:49;;;;;;;8.88;7.20;;;;;;;21.79;55.30;93819.41;4780219;29;20456;-93
2023/09/15 02:29:15;;;;;;;8.32;7.53;;;;;;;21.77;55.43;93815.69;4772851;29;20054;-94
2023/09/15 02:31:41;;;;;;;7.93;6.97;;;;;;;21.78;55.20;93817.16;4815997;29;20061;-94
2023/09/15 02:34:06;;;;;;;7.85;7.13;;;;;;;21.79;55.09;93810.41;4846322;29;20051;-94
2023/09/15 02:36:32;;;;;;;9.73;8.10;;;;;;;21.77;55.27;93804.66;4846373;29;20041;-95
2023/09/15 02:38:57;;;;;;;8.57;7.68;;;;;;;21.76;55.15;93806.69;4829378;29;20045;-94
2023/09/15 02:41:23;;;;;;;8.32;7.53;;;;;;;21.77;55.21;93799.91;4843657;29;20045;-94
2023/09/15 02:43:48;;;;;;;7.72;6.93;;;;;;;21.77;55.23;93810.16;4833897;29;20104;-95
2023/09/15 02:46:14;;;;;;;8.02;7.22;;;;;;;21.76;55.12;93809.44;4838745;29;20040;-93
2023/09/15 02:48:41;;;;;;;7.88;7.07;;;;;;;21.77;54.85;93808.16;4846725;29;20037;-93
2023/09/15 02:51:07;;;;;;;7.55;6.78;;;;;;;21.77;55.16;93802.66;4841438;29;20052;-95
2023/09/15 02:53:32;;;;;;;7.63;6.82;;;;;;;21.77;55.01;93801.91;4828533;29;20053;-95
2023/09/15 02:56:00;;;;;;;7.32;6.40;;;;;;;21.79;54.77;93783.63;4837229;29;20041;-93
2023/09/15 02:58:26;;;;;;;9.45;7.65;;;;;;;21.78;54.94;93789.63;4832037;29;20124;-94
2023/09/15 03:00:52;;;;;;;7.20;6.45;;;;;;;21.74;55.03;93781.69;4828768;29;20047;-94
2023/09/15 03:03:17;;;;;;;7.78;7.03;;;;;;;21.77;55.10;93779.91;4829047;29;20441;-93
2023/09/15 03:05:43;;;;;;;7.13;6.43;;;;;;;21.78;55.05;93784.88;4828278;29;20492;-94
2023/09/15 03:08:09;;;;;;;6.75;6.15;;;;;;;21.79;54.84;93780.13;4828364;29;20041;-93
2023/09/15 03:10:34;;;;;;;7.43;6.72;;;;;;;21.76;54.81;93776.41;4843856;29;20544;-93
2023/09/15 03:13:02;;;;;;;7.65;6.55;;;;;;;21.76;54.75;93781.91;4836327;29;20040;-92
2023/09/15 03:15:27;;;;;;;8.23;6.97;;;;;;;21.76;54.91;93773.66;4846666;29;20048;-93
2023/09/15 03:17:53;;;;;;;7.60;6.47;;;;;;;21.75;55.02;93774.91;4836437;29;20140;-93
2023/09/15 03:20:19;;;;;;;7.80;7.00;;;;;;;21.76;54.57;93772.91;4846222;29;20037;-94
2023/09/15 03:22:45;;;;;;;6.93;6.22;;;;;;;21.74;55.07;93765.19;4838971;29;20350;-94
2023/09/15 03:25:11;;;;;;;6.93;6.32;;;;;;;21.74;54.97;93775.44;4828529;29;20053;-94
2023/09/15 03:27:37;;;;;;;6.95;6.18;;;;;;;21.77;54.85;93771.66;4829118;29;20052;-93
2023/09/15 03:30:06;;;;;;;8.00;6.13;;;;;;;21.76;54.74;93770.16;4833280;29;20053;-93
2023/09/15 03:32:32;;;;;;;7.10;6.10;;;;;;;21.76;54.50;93764.66;4845017;29;20071;-94
2023/09/15 03:34:57;;;;;;;7.30;6.53;;;;;;;21.76;54.67;93770.91;4831845;29;20068;-95
2023/09/15 03:37:22;;;;;;;6.13;5.53;;;;;;;21.75;54.54;93772.16;4831443;29;20049;-93
2023/09/15 03:39:48;;;;;;;7.07;6.38;;;;;;;21.75;54.76;93771.41;4847402;29;20045;-94
2023/09/15 03:42:15;;;;;;;6.93;5.65;;;;;;;21.75;54.56;93772.16;4847145;29;20038;-94
2023/09/15 03:44:40;;;;;;;6.53;5.82;;;;;;;21.75;54.60;93772.16;4847240;29;20044;-94
2023/09/15 03:47:06;;;;;;;7.10;6.40;;;;;;;21.74;54.68;93769.94;4845598;29;20432;-94
2023/09/15 03:49:31;;;;;;;7.32;5.82;;;;;;;21.74;54.63;93767.19;4847230;29;20036;-93
2023/09/15 03:51:56;;;;;;;7.13;6.35;;;;;;;21.74;54.64;93759.66;4835013;29;20056;-93
2023/09/15 03:54:24;;;;;;;6.47;5.50;;;;;;;21.75;54.63;93763.16;4831703;29;20517;-94
2023/09/15 03:56:50;;;;;;;7.45;6.13;;;;;;;21.74;54.61;93754.16;4831870;29;20037;-93
2023/09/15 03:59:15;;;;;;;6.45;5.55;;;;;;;21.74;54.51;93759.66;4843865;29;20068;-94
2023/09/15 04:01:41;;;;;;;6.78;6.10;;;;;;;21.75;54.33;93760.41;4846870;29;20053;-93
2023/09/15 04:04:06;;;;;;;7.30;5.60;;;;;;;21.75;54.29;93758.41;4841752;29;20053;-94
2023/09/15 04:06:33;;;;;;;6.38;5.63;;;;;;;21.73;54.48;93771.19;4864929;29;20093;-95
2023/09/15 04:08:59;;;;;;;6.90;5.93;;;;;;;21.74;54.51;93753.44;4837334;29;20060;-93
2023/09/15 04:11:24;;;;;;;5.75;5.22;;;;;;;21.73;54.46;93755.44;4849407;29;20408;-94
2023/09/15 04:13:50;;;;;;;6.32;5.68;;;;;;;21.76;54.56;93761.91;4856635;29;20148;-95
2023/09/15 04:16:17;;;;;;;6.22;5.63;;;;;;;21.75;54.61;93761.16;4846488;29;20433;-94
2023/09/15 04:18:42;;;;;;;5.97;5.30;;;;;;;21.73;54.58;93762.94;4853517;29;20048;-94
2023/09/15 04:21:09;;;;;;;5.80;5.22;;;;;;;21.74;54.77;93753.44;4845976;29;20049;-94
2023/09/15 04:23:34;;;;;;;6.30;5.03;;;;;;;21.71;54.59;93754.47;4831513;29;20045;-94
2023/09/15 04:26:00;;;;;;;7.60;6.25;;;;;;;21.71;54.70;93751.72;4832024;29;20386;-94
2023/09/15 04:28:25;;;;;;;7.05;5.45;;;;;;;21.71;54.82;93748.97;4830415;29;20061;-93
2023/09/15 04:30:51;;;;;;;6.80;5.90;;;;;;;21.71;54.61;93757.22;4830750;29;20548;-94
2023/09/15 04:33:16;;;;;;;6.60;5.88;;;;;;;21.72;54.54;93758.72;4830889;29;20497;-94
2023/09/15 04:35:42;;;;;;;5.80;4.95;;;;;;;21.73;54.64;93754.69;4848827;29;20073;-93
2023/09/15 04:38:08;;;;;;;6.50;5.60;;;;;;;21.72;54.58;93758.72;4848485;29;20053;-95
2023/09/15 04:40:33;;;;;;;6.05;5.38;;;;;;;21.75;54.64;93763.91;4848979;29;20063;-94
2023/09/15 04:43:02;;;;;;;5.25;4.80;;;;;;;21.72;54.47;93747.69;4845902;29;20033;-95
2023/09/15 04:45:27;;;;;;;5.90;5.07;;;;;;;21.76;54.55;93751.63;4831117;29;20132;-95
2023/09/15 04:47:53;;;;;;;7.15;5.35;;;;;;;21.75;54.66;93752.91;4845709;29;20089;-94
2023/09/15 04:50:18;;;;;;;5.57;4.68;;;;;;;21.78;54.34;93753.88;4845925;29;20037;-94
2023/09/15 04:52:44;;;;;;;5.68;4.32;;;;;;;21.76;54.22;93756.41;4846571;29;20052;-94
2023/09/15 04:55:09;;;;;;;4.63;4.20;;;;;;;21.77;54.49;93749.63;4862019;29;20048;-94
2023/09/15 04:57:35;;;;;;;5.82;4.30;;;;;;;21.74;54.07;93751.41;4864006;29;20052;-94
2023/09/15 05:00:01;;;;;;;5.03;4.50;;;;;;;21.76;54.37;93756.41;4854076;29;20052;-94
2023/09/15 05:02:30;;;;;;;4.82;4.43;;;;;;;21.75;54.60;93755.66;4830334;29;20139;-94
2023/09/15 05:04:55;;;;;;;4.93;4.43;;;;;;;21.77;54.29;93755.88;4831486;29;20040;-95
2023/09/15 05:07:21;;;;;;;4.95;4.45;;;;;;;21.78;54.58;93762.13;4840839;29;20419;-94
2023/09/15 05:09:46;;;;;;;5.20;4.45;;;;;;;21.80;54.35;93754.81;4844737;29;20052;-93
2023/09/15 05:12:14;;;;;;;5.78;4.70;;;;;;;21.78;54.61;93751.13;4863569;29;20044;-94
2023/09/15 05:14:39;;;;;;;4.95;4.38;;;;;;;21.78;54.25;93762.13;4837449;29;20724;-94
2023/09/15 05:17:05;;;;;;;4.57;4.18;;;;;;;21.80;53.97;93756.84;4829680;29;20045;-93
2023/09/15 05:19:30;;;;;;;4.50;4.10;;;;;;;21.82;54.43;93763.31;4852178;29;20041;-94
2023/09/15 05:21:56;;;;;;;4.82;4.22;;;;;;;21.83;53.92;93758.53;4830509;29;20041;-94
2023/09/15 05:24:21;;;;;;;4.75;4.25;;;;;;;21.83;54.33;93770.28;4829938;29;20060;-94
2023/09/15 05:26:47;;;;;;;5.10;3.70;;;;;;;21.85;54.01;93761.50;4839130;29;20634;-95
2023/09/15 05:29:12;;;;;;;7.05;3.70;;;;;;;21.82;54.25;93770.81;4863256;29;20052;-93
2023/09/15 05:31:38;;;;;;;4.93;3.90;;;;;;;21.84;54.45;93765.53;4856668;29;20041;-95
2023/09/15 05:34:03;;;;;;;4.32;3.50;;;;;;;21.96;54.09;93760.56;4836198;29;20094;-93
2023/09/15 05:36:29;;;;;;;2.90;2.60;;;;;;;21.93;53.73;93767.13;4843016;29;20052;-92
2023/09/15 05:38:54;;;;;;;3.33;2.75;;;;;;;21.92;53.91;93763.63;4846838;29;20038;-94
2023/09/15 05:41:20;;;;;;;4.13;3.25;;;;;;;21.92;53.99;93771.16;4827581;29;20045;-93
2023/09/15 05:43:46;;;;;;;3.03;2.72;;;;;;;21.95;53.68;93775.59;4858174;29;20479;-94
2023/09/15 05:46:12;;;;;;;3.17;2.78;;;;;;;21.94;53.93;93768.63;4845258;29;20045;-93
2023/09/15 05:48:37;;;;;;;3.10;2.70;;;;;;;21.98;53.90;93774.56;4845582;29;20405;-93
2023/09/15 05:51:09;;;;;;;7.00;2.97;;;;;;;22.02;53.77;93777.78;4841727;29;20045;-94
2023/09/15 05:53:38;;;;;;;38.33;5.72;;;;;;;21.98;53.42;93774.56;4829117;29;20062;-94
2023/09/15 05:56:13;;;;;;;47.88;6.28;;;;;;;21.99;53.57;93779.53;4818217;29;20489;-93
2023/09/15 05:58:38;;;;;;;16.52;3.95;;;;;;;22.02;53.17;93783.28;4869922;29;20059;-94
2023/09/15 06:01:06;;;;;;;6.57;3.08;;;;;;;22.05;53.41;93782.97;4843216;29;20049;-94
2023/09/15 06:03:36;;;;;;;8.05;2.63;;;;;;;22.04;53.60;93781.50;4831440;29;20153;-94
2023/09/15 06:06:10;;;;;;;6.55;2.88;;;;;;;22.06;53.73;93784.47;4829502;29;20078;-94
2023/09/15 06:08:45;;;;;;;3.63;2.47;;;;;;;22.09;53.51;93790.91;4827071;29;20050;-95
2023/09/15 06:12:02;;;;;;;11.48;3.03;;;;;;;22.07;53.14;93785.97;4817111;29;20633;-93
2023/09/15 06:14:23;;;;;;;;;;;;;;;22.18;52.96;93785.00;4847459;29;20114;-92
2023/09/15 06:16:48;;;;;;;5.97;2.60;;;;;;;22.24;52.93;93782.91;4853784;29;19920;-93
2023/09/15 06:19:35;;;;;;;5.03;2.72;;;;;;;22.19;53.09;93776.22;4850102;29;20125;-92
2023/09/15 06:22:01;;;;;;;4.18;2.67;;;;;;;22.25;52.68;93781.66;4836908;29;20621;-93
2023/09/15 06:24:26;;;;;;;6.65;2.78;;;;;;;22.23;53.13;93773.91;4851752;29;20105;-93
2023/09/15 06:26:58;;;;;;;5.43;2.50;;;;;;;22.25;53.22;93778.16;4859275;29;20053;-94
2023/09/15 06:29:29;;;;;;;4.38;2.90;;;;;;;22.27;52.88;93776.34;4836201;29;20487;-94
2023/09/15 06:31:58;;;;;;;4.05;2.50;;;;;;;22.27;53.08;93775.63;4846245;29;20086;-93
2023/09/15 06:34:26;;;;;;;6.38;2.53;;;;;;;22.28;52.95;93769.56;4828587;29;20090;-93
2023/09/15 06:36:55;;;;;;;7.57;2.42;;;;;;;22.26;52.67;93779.63;4819071;29;20054;-92
2023/09/15 06:39:24;;;;;;;4.05;2.47;;;;;;;22.27;52.34;93765.34;4804714;29;20461;-94
2023/09/15 06:41:50;;;;;;;6.60;3.35;;;;;;;22.28;52.52;93758.56;4783321;29;20057;-94
2023/09/15 06:44:15;;;;;;;11.90;3.83;;;;;;;22.27;52.84;93770.09;4813633;29;20070;-92
2023/09/15 06:46:41;;;;;;;10.20;3.33;;;;;;;22.28;52.94;93758.56;4837233;29;20514;-94
2023/09/15 06:49:11;;;;;;;5.68;3.13;;;;;;;22.27;52.82;93770.84;4809117;29;20548;-93
2023/09/15 06:51:37;;;;;;;6.82;3.45;;;;;;;22.29;52.71;93773.06;4842613;29;20042;-93
2023/09/15 06:54:02;;;;;;;10.68;7.45;;;;;;;22.31;52.57;93776.75;4800799;29;20464;-95
2023/09/15 06:56:28;;;;;;;10.75;7.55;;;;;;;22.29;52.72;93760.03;4780680;29;20065;-94
2023/09/15 06:58:54;;;;;;;10.95;6.75;;;;;;;22.30;52.55;93766.28;4807776;29;20449;-94
2023/09/15 07:01:19;;;;;;;9.55;5.47;;;;;;;22.31;52.80;93757.47;4809322;29;20046;-93
2023/09/15 07:03:45;;;;;;;11.52;6.18;;;;;;;22.35;52.61;93755.16;4839753;29;20086;-94
2023/09/15 07:06:10;;;;;;;18.10;7.82;;;;;;;22.32;52.28;93769.97;4826094;29;20042;-95
2023/09/15 07:08:37;;;;;;;11.18;7.95;;;;;;;22.33;52.61;93752.19;4854089;29;20045;-93
2023/09/15 07:11:10;;;;;;;10.75;7.43;;;;;;;22.34;52.67;93752.94;4833435;29;20037;-94
2023/09/15 07:13:35;;;;;;;20.13;7.05;;;;;;;22.38;52.53;93756.84;4842986;29;20045;-93
2023/09/15 07:16:01;;;;;;;9.95;6.53;;;;;;;22.39;52.24;93760.34;4833117;29;20037;-95
2023/09/15 07:18:26;;;;;;;8.93;6.05;;;;;;;22.38;52.72;93762.38;4840272;29;20060;-93
2023/09/15 07:20:52;;;;;;;9.15;6.50;;;;;;;22.45;52.38;93761.75;4805178;29;20500;-93
2023/09/15 07:23:20;;;;;;;14.55;6.07;;;;;;;22.41;52.48;93764.06;4792865;29;20073;-94
2023/09/15 07:25:48;;;;;;;7.07;5.32;;;;;;;22.44;52.35;93759.53;4794582;29;20477;-94
2023/09/15 07:28:17;;;;;;;7.55;5.65;;;;;;;22.42;52.35;93757.28;4794779;29;20061;-95
2023/09/15 07:30:45;;;;;;;10.60;4.97;;;;;;;22.42;52.50;93757.28;4788478;29;20055;-94
2023/09/15 07:33:11;;;;;;;5.57;4.05;;;;;;;22.51;52.20;93751.38;4770801;29;20091;-93
2023/09/15 07:35:37;;;;;;;7.22;4.53;;;;;;;22.48;52.19;93746.19;4774940;29;20042;-94
2023/09/15 07:38:03;;;;;;;6.95;4.30;;;;;;;22.45;52.59;93749.97;4764556;29;20055;-95
2023/09/15 07:40:29;;;;;;;5.05;3.75;;;;;;;22.48;52.24;93748.94;4755486;29;20552;-95
2023/09/15 07:42:54;;;;;;;7.43;3.70;;;;;;;22.48;52.19;93752.44;4769901;29;20137;-95
2023/09/15 07:45:23;;;;;;;9.13;3.28;;;;;;;22.45;52.59;93752.75;4785943;29;20061;-95
2023/09/15 07:47:49;;;;;;;6.70;3.58;;;;;;;22.48;52.40;93748.94;4781440;29;20423;-94
2023/09/15 07:50:17;;;;;;;7.13;3.10;;;;;;;22.50;52.56;93747.13;4757869;29;20053;-94
2023/09/15 07:52:49;;;;;;;5.57;3.35;;;;;;;22.51;52.37;93758.91;4778475;29;20601;-94
2023/09/15 07:55:19;;;;;;;5.18;3.35;;;;;;;22.47;52.26;93761.97;4786548;29;20425;-94
2023/09/15 07:57:44;;;;;;;4.47;3.72;;;;;;;22.50;52.36;93760.16;4790158;29;20141;-95
2023/09/15 08:00:10;;;;;;;5.57;3.13;;;;;;;22.52;52.57;93755.59;4772677;29;20106;-93
2023/09/15 08:02:38;;;;;;;3.65;2.90;;;;;;;22.53;52.61;93762.59;4798144;29;20046;-94
2023/09/15 08:05:04;;;;;;;4.82;3.08;;;;;;;22.53;52.52;93759.09;4790206;29;20053;-94
2023/09/15 08:07:31;;;;;;;4.82;2.90;;;;;;;22.53;52.52;93762.59;4785958;29;20462;-95
2023/09/15 08:09:56;;;;;;;5.60;3.13;;;;;;;22.57;52.33;93756.75;4786980;29;20121;-93
2023/09/15 08:12:23;;;;;;;4.90;2.92;;;;;;;22.58;52.29;93766.50;4774486;29;21190;-94
2023/09/15 08:14:49;;;;;;;7.10;3.05;;;;;;;22.58;52.30;93761.75;4825010;29;20118;-94
2023/09/15 08:17:15;;;;;;;5.15;2.70;;;;;;;22.60;52.30;93758.47;4835151;29;20064;-93
2023/09/15 08:19:41;;;;;;;3.13;2.75;;;;;;;22.58;52.38;93758.97;4819922;29;20045;-93
2023/09/15 08:22:06;;;;;;;3.33;2.80;;;;;;;22.59;52.49;93759.72;4829703;29;20394;-93
2023/09/15 08:24:32;;;;;;;2.90;2.38;;;;;;;22.60;52.33;93763.22;4846304;29;20446;-94
2023/09/15 08:27:03;;;;;;;4.85;2.88;;;;;;;22.61;52.48;93753.69;4846644;29;20077;-92
2023/09/15 08:29:31;;;;;;;4.32;2.50;;;;;;;22.60;52.34;93752.19;4845788;29;20685;-94
2023/09/15 08:31:56;;;;;;;4.38;2.42;;;;;;;22.60;52.26;93757.72;4844897;29;20053;-93
2023/09/15 08:34:22;;;;;;;3.05;2.50;;;;;;;22.64;52.25;93760.91;4830824;29;25642;-93
2023/09/15 08:36:47;;;;;;;4.13;2.53;;;;;;;22.60;52.37;93752.94;4833058;29;20500;-93
2023/09/15 08:39:16;;;;;;;3.60;2.30;;;;;;;22.58;52.58;93752.72;4850317;29;20056;-94
2023/09/15 08:41:51;;;;;;;2.63;2.10;;;;;;;22.56;52.47;93769.78;4807929;29;20622;-93
2023/09/15 08:44:17;;;;;;;4.43;3.00;;;;;;;22.51;51.68;93750.63;4768210;29;20104;-94
2023/09/15 08:46:43;;;;;;;5.57;3.15;;;;;;;22.46;51.27;93756.97;4805238;29;20042;-93
2023/09/15 08:49:09;;;;;;;4.57;3.00;;;;;;;22.35;50.90;93752.41;4804125;29;20141;-94
2023/09/15 08:51:36;;;;;;;4.80;3.13;;;;;;;22.33;50.55;93754.19;4774810;29;20042;-93
2023/09/15 08:54:04;;;;;;;3.47;3.17;;;;;;;22.20;50.66;93760.44;4829580;29;20078;-93
2023/09/15 08:56:29;;;;;;;3.50;3.20;;;;;;;22.24;50.52;93763.63;4792125;29;20038;-93
2023/09/15 08:58:56;;;;;;;7.80;3.40;;;;;;;22.29;50.54;93751.03;4795988;29;20046;-94
2023/09/15 09:01:22;;;;;;;5.72;3.53;;;;;;;22.24;50.48;93752.63;4784525;29;20050;-93
2023/09/15 09:03:48;;;;;;;5.80;3.65;;;;;;;22.27;50.83;93751.56;4774966;29;20194;-94
2023/09/15 09:06:14;;;;;;;4.45;4.05;;;;;;;22.31;50.66;93745.72;4789501;29;20107;-93
2023/09/15 09:08:41;;;;;;;4.30;3.83;;;;;;;22.32;50.79;93753.47;4773773;29;20050;-94
2023/09/15 09:11:06;;;;;;;4.57;4.10;;;;;;;22.31;50.69;93757.47;4789040;29;20050;-93
2023/09/15 09:13:32;;;;;;;5.97;3.50;;;;;;;22.28;50.75;93755.81;4804239;29;20124;-93
2023/09/15 09:15:57;;;;;;;4.50;3.63;;;;;;;22.21;50.87;93751.66;4775275;29;20069;-93
2023/09/15 09:18:25;;;;;;;5.95;3.88;;;;;;;22.19;50.79;93765.22;4766669;29;20047;-94
2023/09/15 09:20:50;;;;;;;7.25;4.40;;;;;;;22.18;50.83;93751.97;4792071;29;20629;-93
2023/09/15 09:23:19;;;;;;;4.65;4.18;;;;;;;22.10;50.91;93754.59;4779622;29;20057;-93
2023/09/15 09:25:45;;;;;;;4.97;4.22;;;;;;;22.14;51.11;93757.03;4806532;29;20050;-93
2023/09/15 09:28:11;;;;;;;4.03;3.63;;;;;;;22.11;51.18;93760.84;4808011;29;20061;-94
2023/09/15 09:30:36;;;;;;;4.50;4.05;;;;;;;22.15;51.27;93747.50;4792277;29;20345;-93
2023/09/15 09:33:03;;;;;;;6.13;4.28;;;;;;;22.19;51.21;93748.69;4780556;29;20517;-94
2023/09/15 09:35:28;;;;;;;5.53;4.20;;;;;;;22.21;51.29;93745.41;4788708;29;20077;-93
2023/09/15 09:37:55;;;;;;;5.20;4.65;;;;;;;22.24;51.11;93749.88;4808204;29;20497;-93
2023/09/15 09:40:21;;;;;;;5.70;4.35;;;;;;;22.26;51.08;93747.31;4821139;29;20509;-93
2023/09/15 09:42:47;;;;;;;7.18;4.50;;;;;;;22.28;51.14;93755.06;4829971;29;20353;-93
2023/09/15 09:45:14;;;;;;;6.45;4.85;;;;;;;22.29;50.91;93751.78;4824847;29;20045;-92
2023/09/15 09:47:40;;;;;;;4.28;3.88;;;;;;;22.32;51.23;93752.72;4825125;29;20059;-93
2023/09/15 09:50:06;;;;;;;5.38;4.18;;;;;;;22.32;51.34;93752.72;4836800;29;20085;-93
2023/09/15 09:52:33;;;;;;;6.53;4.47;;;;;;;22.33;51.33;93752.19;4826373;29;20387;-93
2023/09/15 09:55:05;;;;;;;4.60;4.20;;;;;;;22.36;51.34;93748.38;4829087;29;20060;-94
2023/09/15 09:57:32;;;;;;;4.20;3.60;;;;;;;22.36;51.66;93737.38;4828387;29;20033;-95
2023/09/15 09:59:58;;;;;;;4.63;3.13;;;;;;;22.38;51.74;93732.06;4835560;29;20045;-93
2023/09/15 10:02:24;;;;;;;3.60;2.75;;;;;;;22.39;51.95;93735.56;4843760;29;20029;-94
2023/09/15 10:04:51;;;;;;;5.68;4.15;;;;;;;22.39;51.68;93730.81;4843568;29;20037;-94
2023/09/15 10:07:17;;;;;;;3.97;2.60;;;;;;;22.41;51.80;93727.50;4847584;29;20044;-94
2023/09/15 10:09:43;;;;;;;4.70;3.00;;;;;;;22.39;51.94;93733.56;4833061;29;20067;-94
2023/09/15 10:12:10;;;;;;;3.30;2.83;;;;;;;22.41;51.80;93727.50;4817104;29;20049;-94
2023/09/15 10:14:38;;;;;;;6.28;3.17;;;;;;;22.43;52.08;93727.72;4844430;29;20460;-94
2023/09/15 10:17:04;;;;;;;2.97;2.75;;;;;;;22.44;51.99;93723.72;4835662;29;20037;-94
2023/09/15 10:19:31;;;;;;;2.83;2.47;;;;;;;22.45;51.85;93725.19;4825844;29;20120;-94
2023/09/15 10:21:57;;;;;;;4.07;2.80;;;;;;;22.43;51.74;93730.50;4826736;29;20033;-94
2023/09/15 10:24:27;;;;;;;3.72;2.90;;;;;;;22.46;51.79;93721.91;4827654;29;20185;-93
2023/09/15 10:26:52;;;;;;;3.22;2.67;;;;;;;22.44;51.93;93724.44;4807589;29;20073;-95
2023/09/15 10:29:20;;;;;;;2.50;1.98;;;;;;;22.42;51.83;93713.22;4784732;29;20042;-94
2023/09/15 10:31:46;;;;;;;3.72;2.33;;;;;;;22.42;51.78;93706.97;4791844;29;20737;-94
2023/09/15 10:34:12;;;;;;;4.13;2.53;;;;;;;22.43;51.85;93706.44;4781837;29;20053;-95
2023/09/15 10:36:40;;;;;;;2.53;2.30;;;;;;;22.42;51.97;93713.22;4783047;29;20217;-93
2023/09/15 10:39:12;;;;;;;2.50;2.30;;;;;;;22.42;52.00;93710.47;4834840;29;20494;-93
2023/09/15 10:41:38;;;;;;;2.45;2.25;;;;;;;22.43;52.12;93717.47;4809327;29;20105;-94
2023/09/15 10:44:03;;;;;;;3.55;2.20;;;;;;;22.43;51.99;93708.44;4799802;29;20053;-94
2023/09/15 10:46:38;;;;;;;2.28;2.08;;;;;;;22.42;52.12;93712.47;4774293;29;20050;-93
2023/09/15 10:49:14;;;;;;;3.47;2.35;;;;;;;22.42;51.92;93706.97;4786892;29;20533;-94
2023/09/15 10:51:53;;;;;;;2.30;2.10;;;;;;;22.42;52.11;93702.19;4761133;29;20096;-93
2023/09/15 10:54:19;;;;;;;3.22;2.17;;;;;;;22.43;52.23;93705.69;4760733;29;20043;-94
2023/09/15 10:56:46;;;;;;;2.60;2.20;;;;;;;22.43;52.00;93708.44;4754308;29;20042;-93
2023/09/15 10:59:11;;;;;;;2.42;2.00;;;;;;;22.42;52.24;93696.69;4807635;29;20071;-95
2023/09/15 11:01:37;;;;;;;3.25;1.90;;;;;;;22.42;52.34;93698.69;4806164;29;20445;-94
2023/09/15 11:04:03;;;;;;;2.28;2.08;;;;;;;22.42;52.07;93698.69;4790015;29;20134;-94
2023/09/15 11:06:30;;;;;;;3.50;2.00;;;;;;;22.41;52.16;93699.97;4804476;29;20613;-94
2023/09/15 11:08:59;;;;;;;2.20;2.00;;;;;;;22.43;52.46;93697.44;4783672;29;20507;-94
2023/09/15 11:11:24;;;;;;;1.98;1.70;;;;;;;22.42;52.53;93682.91;4804992;29;20053;-94
2023/09/15 11:13:50;;;;;;;3.55;2.08;;;;;;;22.43;52.37;93692.66;4800045;29;20070;-95
2023/09/15 11:16:18;;;;;;;4.07;1.80;;;;;;;22.44;52.56;93682.38;4772965;29;20110;-94
2023/09/15 11:18:46;;;;;;;2.13;1.90;;;;;;;22.42;52.42;93691.19;4793925;29;20616;-94
2023/09/15 11:21:12;;;;;;;1.67;1.58;;;;;;;22.43;52.34;93687.16;4838870;29;20120;-94
2023/09/15 11:23:45;;;;;;;2.45;2.20;;;;;;;22.42;52.17;93688.44;4824839;29;20101;-93
2023/09/15 11:26:10;;;;;;;2.20;2.00;;;;;;;22.42;52.47;93682.91;4824735;29;20079;-93
2023/09/15 11:28:36;;;;;;;2.75;2.10;;;;;;;22.41;52.48;93686.94;4822817;29;20046;-94
2023/09/15 11:31:04;;;;;;;2.38;2.00;;;;;;;22.41;52.30;93689.69;4815725;29;20049;-93